Time,TemperatureF,DewpointF,PressureIn,WindDirection,WindDirectionDegrees,WindSpeedMPH,WindSpeedGustMPH,Humidity,HourlyPrecipIn,Conditions,Clouds,dailyrainin,SoftwareType,DateUTC
2013-02-10 00:01:00,41.0,32.0,-100.00,NNW,340,0.0,0.0,72,-99.99,,,-99.99,,2013-02-10 06:01:00,
2013-02-10 00:11:00,40.0,34.0,-100.00,NE,45,1.0,1.0,77,-99.99,,,-99.99,,2013-02-10 06:11:00,
2013-02-10 00:21:00,40.0,34.0,-100.00,NE,45,1.0,1.0,77,-99.99,,,-99.99,,2013-02-10 06:21:00,
2013-02-10 00:42:00,40.0,35.0,-100.00,East,90,3.0,3.0,82,-99.99,,,-99.99,,2013-02-10 06:42:00,
2013-02-10 00:52:00,40.0,36.0,-100.00,ESE,105,3.0,3.0,83,-99.99,,,-99.99,,2013-02-10 06:52:00,
2013-02-10 01:01:00,40.0,36.0,-100.00,ESE,105,3.0,3.0,83,-99.99,,,-99.99,,2013-02-10 07:01:00,
2013-02-10 01:11:00,40.0,35.0,-100.00,SE,140,1.0,1.0,82,-99.99,,,-99.99,,2013-02-10 07:11:00,
2013-02-10 01:21:00,41.0,35.0,-100.00,SE,145,1.0,2.0,81,-99.99,,,-99.99,,2013-02-10 07:21:00,
2013-02-10 01:31:00,41.0,35.0,-100.00,SE,145,1.0,2.0,81,-99.99,,,-99.99,,2013-02-10 07:31:00,
2013-02-10 01:41:00,41.0,36.0,-100.00,SSE,150,3.0,4.0,81,-99.99,,,-99.99,,2013-02-10 07:41:00,
2013-02-10 01:52:00,42.0,35.0,-100.00,SE,140,2.0,3.0,77,-99.99,,,-99.99,,2013-02-10 07:52:00,
2013-02-10 02:01:00,42.0,35.0,-100.00,SE,140,2.0,3.0,77,-99.99,,,-99.99,,2013-02-10 08:01:00,
2013-02-10 02:11:00,43.0,34.0,-100.00,SSE,160,3.0,4.0,71,-99.99,,,-99.99,,2013-02-10 08:11:00,
2013-02-10 02:21:00,44.0,32.0,-100.00,SSE,150,6.0,6.0,61,-99.99,,,-99.99,,2013-02-10 08:21:00,
2013-02-10 02:32:00,44.0,32.0,-100.00,SSE,150,6.0,6.0,61,-99.99,,,-99.99,,2013-02-10 08:32:00,
2013-02-10 02:43:00,45.0,31.0,-100.00,SSE,160,6.0,8.0,56,-99.99,,,-99.99,,2013-02-10 08:43:00,
2013-02-10 02:52:00,46.0,30.0,-100.00,SE,145,4.0,9.0,54,-99.99,,,-99.99,,2013-02-10 08:52:00,
2013-02-10 03:02:00,46.0,30.0,-100.00,SE,145,4.0,9.0,54,-99.99,,,-99.99,,2013-02-10 09:02:00,
2013-02-10 03:11:00,46.0,30.0,-100.00,SSE,155,6.0,10.0,52,-99.99,,,-99.99,,2013-02-10 09:11:00,
2013-02-10 03:21:00,47.0,30.0,-100.00,SSE,155,6.0,9.0,52,-99.99,,,-99.99,,2013-02-10 09:21:00,
2013-02-10 03:32:00,47.0,30.0,-100.00,SSE,155,6.0,9.0,52,-99.99,,,-99.99,,2013-02-10 09:32:00,
2013-02-10 03:41:00,46.0,30.0,-100.00,SSE,155,6.0,9.0,52,-99.99,,,-99.99,,2013-02-10 09:41:00,
2013-02-10 03:52:00,45.0,31.0,-100.00,SE,135,6.0,12.0,57,-99.99,,,-99.99,,2013-02-10 09:52:00,
2013-02-10 04:01:00,45.0,31.0,-100.00,SE,135,6.0,12.0,57,-99.99,,,-99.99,,2013-02-10 10:01:00,
2013-02-10 04:11:00,45.0,32.0,-100.00,ESE,120,3.0,4.0,59,-99.99,,,-99.99,,2013-02-10 10:11:00,
2013-02-10 04:21:00,45.0,32.0,-100.00,SE,125,4.0,6.0,60,-99.99,,,-99.99,,2013-02-10 10:21:00,
2013-02-10 04:31:00,45.0,32.0,-100.00,SE,125,4.0,6.0,60,-99.99,,,-99.99,,2013-02-10 10:31:00,
2013-02-10 04:42:00,45.0,33.0,-100.00,ESE,120,3.0,4.0,62,-99.99,,,-99.99,,2013-02-10 10:42:00,
2013-02-10 04:52:00,45.0,34.0,-100.00,ESE,115,4.0,6.0,66,-99.99,,,-99.99,,2013-02-10 10:52:00,
2013-02-10 05:01:00,45.0,34.0,-100.00,ESE,115,4.0,6.0,66,-99.99,,,-99.99,,2013-02-10 11:01:00,
2013-02-10 05:11:00,45.0,35.0,-100.00,SE,135,9.0,12.0,67,-99.99,,,-99.99,,2013-02-10 11:11:00,
2013-02-10 05:22:00,46.0,35.0,-100.00,ESE,115,4.0,6.0,66,-99.99,,,-99.99,,2013-02-10 11:22:00,
2013-02-10 05:32:00,46.0,35.0,-100.00,ESE,115,4.0,6.0,66,-99.99,,,-99.99,,2013-02-10 11:32:00,
2013-02-10 05:42:00,47.0,35.0,-100.00,East,100,9.0,17.0,63,-99.99,,,-99.99,,2013-02-10 11:42:00,
2013-02-10 05:52:00,47.0,35.0,-100.00,SE,130,6.0,10.0,64,-99.99,,,-99.99,,2013-02-10 11:52:00,
2013-02-10 06:02:00,47.0,35.0,-100.00,SE,130,6.0,10.0,64,-99.99,,,-99.99,,2013-02-10 12:02:00,
2013-02-10 06:12:00,47.0,35.0,-100.00,SE,130,9.0,10.0,64,-99.99,,,-99.99,,2013-02-10 12:12:00,
2013-02-10 06:21:00,47.0,36.0,-100.00,SE,135,6.0,10.0,65,-99.99,,,-99.99,,2013-02-10 12:21:00,
2013-02-10 06:32:00,47.0,36.0,-100.00,SE,135,6.0,10.0,65,-99.99,,,-99.99,,2013-02-10 12:32:00,
2013-02-10 06:42:00,47.0,36.0,-100.00,SE,140,4.0,9.0,64,-99.99,,,-99.99,,2013-02-10 12:42:00,
2013-02-10 06:52:00,47.0,36.0,-100.00,SE,130,8.0,12.0,64,-99.99,,,-99.99,,2013-02-10 12:52:00,
2013-02-10 07:02:00,47.0,36.0,-100.00,SE,130,8.0,12.0,64,-99.99,,,-99.99,,2013-02-10 13:02:00,
2013-02-10 07:11:00,48.0,36.0,-100.00,SSE,160,6.0,12.0,63,-99.99,,,-99.99,,2013-02-10 13:11:00,
2013-02-10 07:21:00,48.0,36.0,-100.00,SSE,150,9.0,14.0,62,-99.99,,,-99.99,,2013-02-10 13:21:00,
2013-02-10 07:31:00,48.0,36.0,-100.00,SSE,150,9.0,14.0,62,-99.99,,,-99.99,,2013-02-10 13:31:00,
2013-02-10 07:41:00,48.0,36.0,-100.00,SSE,150,9.0,14.0,62,-99.99,,,-99.99,,2013-02-10 13:41:00,
2013-02-10 07:52:00,49.0,35.0,-100.00,SE,145,10.0,14.0,59,-99.99,,,-99.99,,2013-02-10 13:52:00,
2013-02-10 08:02:00,49.0,35.0,-100.00,SE,145,10.0,14.0,59,-99.99,,,-99.99,,2013-02-10 14:02:00,
2013-02-10 08:11:00,49.0,35.0,-100.00,SE,135,4.0,8.0,59,-99.99,,,-99.99,,2013-02-10 14:11:00,
2013-02-10 08:21:00,49.0,35.0,-100.00,SE,130,12.0,19.0,58,-99.99,,,-99.99,,2013-02-10 14:21:00,
2013-02-10 08:32:00,49.0,35.0,-100.00,SE,130,12.0,19.0,58,-99.99,,,-99.99,,2013-02-10 14:32:00,
2013-02-10 08:41:00,49.0,35.0,-100.00,SE,130,12.0,19.0,58,-99.99,,,-99.99,,2013-02-10 14:41:00,
2013-02-10 08:52:00,51.0,35.0,-100.00,SE,125,6.0,10.0,54,-99.99,,,-99.99,,2013-02-10 14:52:00,
2013-02-10 09:02:00,51.0,35.0,-100.00,SSE,155,6.0,10.0,54,-99.99,,,-99.99,,2013-02-10 15:02:00,
2013-02-10 09:11:00,51.0,35.0,-100.00,SSE,155,6.0,10.0,54,-99.99,,,-99.99,,2013-02-10 15:11:00,
2013-02-10 09:22:00,51.0,35.0,-100.00,SSE,165,14.0,24.0,53,-99.99,,,-99.99,,2013-02-10 15:22:00,
2013-02-10 09:32:00,51.0,35.0,-100.00,SSE,165,14.0,24.0,53,-99.99,,,-99.99,,2013-02-10 15:32:00,
2013-02-10 09:42:00,52.0,34.0,-100.00,SSE,150,10.0,14.0,50,-99.99,,,-99.99,,2013-02-10 15:42:00,
2013-02-10 09:52:00,52.0,34.0,-100.00,SE,130,9.0,14.0,50,-99.99,,,-99.99,,2013-02-10 15:52:00,
2013-02-10 10:02:00,52.0,34.0,-100.00,SE,130,9.0,14.0,50,-99.99,,,-99.99,,2013-02-10 16:02:00,
2013-02-10 10:11:00,52.0,35.0,-100.00,SSE,155,10.0,14.0,52,-99.99,,,-99.99,,2013-02-10 16:11:00,
2013-02-10 10:22:00,48.0,39.0,-100.00,SSE,150,10.0,21.0,71,-99.99,,,-99.99,,2013-02-10 16:22:00,
2013-02-10 10:32:00,48.0,39.0,-100.00,SSE,150,10.0,21.0,71,-99.99,,,-99.99,,2013-02-10 16:32:00,
2013-02-10 10:42:00,48.0,41.0,-100.00,South,170,6.0,10.0,78,-99.99,,,-99.99,,2013-02-10 16:42:00,
2013-02-10 10:52:00,47.0,43.0,-100.00,South,190,12.0,14.0,84,-99.99,,,-99.99,,2013-02-10 16:52:00,
2013-02-10 11:02:00,47.0,43.0,-100.00,South,190,12.0,14.0,84,-99.99,,,-99.99,,2013-02-10 17:02:00,
2013-02-10 11:11:00,47.0,43.0,-100.00,SSW,195,14.0,17.0,87,-99.99,,,-99.99,,2013-02-10 17:11:00,
2013-02-10 11:22:00,47.0,44.0,-100.00,SSE,165,11.0,14.0,89,-99.99,,,-99.99,,2013-02-10 17:22:00,
2013-02-10 11:32:00,47.0,44.0,-100.00,SSE,165,11.0,14.0,89,-99.99,,,-99.99,,2013-02-10 17:32:00,
2013-02-10 11:42:00,47.0,44.0,-100.00,SSE,160,6.0,9.0,90,-99.99,,,-99.99,,2013-02-10 17:42:00,
2013-02-10 11:52:00,47.0,44.0,-100.00,ESE,110,8.0,14.0,90,-99.99,,,-99.99,,2013-02-10 17:52:00,
2013-02-10 12:02:00,47.0,44.0,-100.00,ESE,110,8.0,14.0,90,-99.99,,,-99.99,,2013-02-10 18:02:00,
2013-02-10 12:11:00,48.0,45.0,-100.00,ESE,120,10.0,14.0,90,-99.99,,,-99.99,,2013-02-10 18:11:00,
2013-02-10 12:22:00,48.0,45.0,-100.00,SSE,150,14.0,17.0,90,-99.99,,,-99.99,,2013-02-10 18:22:00,
2013-02-10 12:32:00,48.0,45.0,-100.00,SSE,150,14.0,17.0,90,-99.99,,,-99.99,,2013-02-10 18:32:00,
2013-02-10 12:42:00,48.0,45.0,-100.00,SE,140,9.0,11.0,89,-99.99,,,-99.99,,2013-02-10 18:42:00,
2013-02-10 12:52:00,48.0,45.0,-100.00,SE,140,9.0,14.0,89,-99.99,,,-99.99,,2013-02-10 18:52:00,
2013-02-10 13:02:00,48.0,45.0,-100.00,SE,140,9.0,14.0,89,-99.99,,,-99.99,,2013-02-10 19:02:00,
2013-02-10 13:12:00,49.0,46.0,-100.00,SE,140,9.0,11.0,89,-99.99,,,-99.99,,2013-02-10 19:12:00,
2013-02-10 13:22:00,49.0,46.0,-100.00,SSE,165,8.0,14.0,89,-99.99,,,-99.99,,2013-02-10 19:22:00,
2013-02-10 13:32:00,49.0,46.0,-100.00,SSE,165,8.0,14.0,89,-99.99,,,-99.99,,2013-02-10 19:32:00,
2013-02-10 13:42:00,50.0,47.0,-100.00,SSE,155,10.0,14.0,88,-99.99,,,-99.99,,2013-02-10 19:42:00,
2013-02-10 13:52:00,50.0,47.0,-100.00,SE,130,6.0,14.0,87,-99.99,,,-99.99,,2013-02-10 19:52:00,
2013-02-10 14:02:00,50.0,47.0,-100.00,SE,130,6.0,14.0,87,-99.99,,,-99.99,,2013-02-10 20:02:00,
2013-02-10 14:11:00,51.0,47.0,-100.00,SE,140,14.0,21.0,86,-99.99,,,-99.99,,2013-02-10 20:11:00,
2013-02-10 14:22:00,52.0,47.0,-100.00,SE,145,18.0,26.0,85,-99.99,,,-99.99,,2013-02-10 20:22:00,
2013-02-10 14:32:00,52.0,47.0,-100.00,SE,145,18.0,26.0,85,-99.99,,,-99.99,,2013-02-10 20:32:00,
2013-02-10 14:42:00,52.0,48.0,-100.00,SSE,165,14.0,25.0,84,-99.99,,,-99.99,,2013-02-10 20:42:00,
2013-02-10 14:52:00,52.0,48.0,-100.00,SSE,150,6.0,9.0,84,-99.99,,,-99.99,,2013-02-10 20:52:00,
2013-02-10 15:02:00,52.0,48.0,-100.00,SSE,150,6.0,9.0,84,-99.99,,,-99.99,,2013-02-10 21:02:00,
2013-02-10 15:11:00,53.0,48.0,-100.00,SSE,165,12.0,16.0,84,-99.99,,,-99.99,,2013-02-10 21:11:00,
2013-02-10 15:22:00,53.0,48.0,-100.00,SSE,160,16.0,21.0,84,-99.99,,,-99.99,,2013-02-10 21:22:00,
2013-02-10 15:32:00,53.0,48.0,-100.00,SSE,160,16.0,21.0,84,-99.99,,,-99.99,,2013-02-10 21:32:00,
2013-02-10 15:42:00,53.0,48.0,-100.00,SSE,155,16.0,23.0,83,-99.99,,,-99.99,,2013-02-10 21:42:00,
2013-02-10 15:52:00,54.0,49.0,-100.00,SSE,160,18.0,26.0,83,-99.99,,,-99.99,,2013-02-10 21:52:00,
2013-02-10 16:02:00,54.0,49.0,-100.00,SSE,160,18.0,26.0,83,-99.99,,,-99.99,,2013-02-10 22:02:00,
2013-02-10 16:11:00,54.0,49.0,-100.00,SSE,165,19.0,25.0,83,-99.99,,,-99.99,,2013-02-10 22:11:00,
2013-02-10 16:22:00,54.0,50.0,-100.00,South,170,21.0,31.0,84,-99.99,,,-99.99,,2013-02-10 22:22:00,
2013-02-10 16:32:00,54.0,50.0,-100.00,South,170,21.0,31.0,84,-99.99,,,-99.99,,2013-02-10 22:32:00,
2013-02-10 16:42:00,55.0,50.0,-100.00,South,180,18.0,23.0,84,-99.99,,,-99.99,,2013-02-10 22:42:00,
2013-02-10 16:53:00,55.0,50.0,-100.00,South,180,21.0,29.0,83,-99.99,,,-99.99,,2013-02-10 22:53:00,
2013-02-10 17:02:00,55.0,50.0,-100.00,South,180,21.0,29.0,83,-99.99,,,-99.99,,2013-02-10 23:02:00,
2013-02-10 17:11:00,55.0,50.0,-100.00,South,190,11.0,18.0,83,-99.99,,,-99.99,,2013-02-10 23:11:00,
2013-02-10 17:22:00,55.0,50.0,-100.00,South,170,16.0,24.0,82,-99.99,,,-99.99,,2013-02-10 23:22:00,
2013-02-10 17:32:00,55.0,50.0,-100.00,South,170,16.0,24.0,82,-99.99,,,-99.99,,2013-02-10 23:32:00,
2013-02-10 17:42:00,55.0,49.0,-100.00,South,170,10.0,11.0,81,-99.99,,,-99.99,,2013-02-10 23:42:00,
2013-02-10 17:52:00,55.0,49.0,-100.00,SSE,165,10.0,16.0,81,-99.99,,,-99.99,,2013-02-10 23:52:00,
2013-02-10 18:02:00,55.0,49.0,-100.00,SSE,165,10.0,16.0,81,-99.99,,,-99.99,,2013-02-11 00:02:00,
2013-02-10 18:11:00,55.0,49.0,-100.00,South,170,11.0,14.0,81,-99.99,,,-99.99,,2013-02-11 00:11:00,
2013-02-10 18:22:00,55.0,49.0,-100.00,SE,145,14.0,21.0,81,-99.99,,,-99.99,,2013-02-11 00:22:00,
2013-02-10 18:32:00,55.0,49.0,-100.00,SE,145,14.0,21.0,81,-99.99,,,-99.99,,2013-02-11 00:32:00,
2013-02-10 18:42:00,55.0,49.0,-100.00,SSE,165,12.0,21.0,81,-99.99,,,-99.99,,2013-02-11 00:42:00,
2013-02-10 18:52:00,55.0,49.0,-100.00,SSE,155,12.0,21.0,81,-99.99,,,-99.99,,2013-02-11 00:52:00,
2013-02-10 19:01:00,55.0,49.0,-100.00,SSE,155,12.0,21.0,81,-99.99,,,-99.99,,2013-02-11 01:01:00,
2013-02-10 19:11:00,55.0,49.0,-100.00,South,180,9.0,12.0,81,-99.99,,,-99.99,,2013-02-11 01:11:00,
2013-02-10 19:21:00,55.0,49.0,-100.00,SSW,195,14.0,18.0,81,-99.99,,,-99.99,,2013-02-11 01:21:00,
2013-02-10 19:32:00,55.0,49.0,-100.00,SSW,195,14.0,18.0,81,-99.99,,,-99.99,,2013-02-11 01:32:00,
2013-02-10 19:42:00,55.0,49.0,-100.00,SSW,195,14.0,18.0,81,-99.99,,,-99.99,,2013-02-11 01:42:00,
2013-02-10 19:52:00,54.0,49.0,-100.00,South,175,11.0,19.0,82,-99.99,,,-99.99,,2013-02-11 01:52:00,
2013-02-10 20:01:00,54.0,49.0,-100.00,South,175,11.0,19.0,82,-99.99,,,-99.99,,2013-02-11 02:01:00,
2013-02-10 20:11:00,55.0,49.0,-100.00,South,180,9.0,14.0,83,-99.99,,,-99.99,,2013-02-11 02:11:00,
2013-02-10 20:21:00,55.0,49.0,-100.00,South,180,12.0,19.0,83,-99.99,,,-99.99,,2013-02-11 02:21:00,
2013-02-10 20:32:00,55.0,49.0,-100.00,South,180,12.0,19.0,83,-99.99,,,-99.99,,2013-02-11 02:32:00,
2013-02-10 20:42:00,55.0,49.0,-100.00,South,180,9.0,11.0,83,-99.99,,,-99.99,,2013-02-11 02:42:00,
2013-02-10 20:52:00,55.0,50.0,-100.00,South,175,6.0,10.0,84,-99.99,,,-99.99,,2013-02-11 02:52:00,
2013-02-10 21:02:00,55.0,50.0,-100.00,South,175,6.0,10.0,84,-99.99,,,-99.99,,2013-02-11 03:02:00,
2013-02-10 21:11:00,55.0,51.0,-100.00,SSW,195,12.0,16.0,85,-99.99,,,-99.99,,2013-02-11 03:11:00,
2013-02-10 21:21:00,55.0,51.0,-100.00,SSW,195,12.0,16.0,85,-99.99,,,-99.99,,2013-02-11 03:21:00,
2013-02-10 21:32:00,55.0,51.0,-100.00,SSW,195,12.0,16.0,85,-99.99,,,-99.99,,2013-02-11 03:32:00,
2013-02-10 21:42:00,55.0,51.0,-100.00,South,185,12.0,16.0,86,-99.99,,,-99.99,,2013-02-11 03:42:00,
2013-02-10 21:52:00,55.0,51.0,-100.00,SSW,195,10.0,14.0,87,-99.99,,,-99.99,,2013-02-11 03:52:00,
2013-02-10 22:01:00,55.0,51.0,-100.00,SSW,195,10.0,14.0,87,-99.99,,,-99.99,,2013-02-11 04:01:00,
2013-02-10 22:11:00,55.0,51.0,-100.00,SSW,195,10.0,14.0,88,-99.99,,,-99.99,,2013-02-11 04:11:00,
2013-02-10 22:21:00,55.0,51.0,-100.00,South,185,10.0,14.0,88,-99.99,,,-99.99,,2013-02-11 04:21:00,
2013-02-10 22:32:00,55.0,51.0,-100.00,South,185,10.0,14.0,88,-99.99,,,-99.99,,2013-02-11 04:32:00,
2013-02-10 22:42:00,55.0,52.0,-100.00,SSW,195,12.0,14.0,88,-99.99,,,-99.99,,2013-02-11 04:42:00,
2013-02-10 22:52:00,55.0,52.0,-100.00,SSW,200,9.0,14.0,88,-99.99,,,-99.99,,2013-02-11 04:52:00,
2013-02-10 23:01:00,55.0,52.0,-100.00,SSW,200,9.0,14.0,88,-99.99,,,-99.99,,2013-02-11 05:01:00,
2013-02-10 23:12:00,55.0,51.0,-100.00,SSW,200,8.0,10.0,88,-99.99,,,-99.99,,2013-02-11 05:12:00,
2013-02-10 23:22:00,54.0,51.0,-100.00,SSW,195,9.0,12.0,89,-99.99,,,-99.99,,2013-02-11 05:22:00,
2013-02-10 23:31:00,53.0,49.0,-100.00,South,190,9.0,11.0,89,-99.99,,,-99.99,,2013-02-11 05:31:00,
2013-02-10 23:32:00,54.0,51.0,-100.00,SSW,195,9.0,12.0,89,-99.99,,,-99.99,,2013-02-11 05:32:00,
2013-02-10 23:42:00,54.0,51.0,-100.00,South,190,6.0,9.0,89,-99.99,,,-99.99,,2013-02-11 05:42:00,
2013-02-10 23:53:00,53.0,50.0,-100.00,SSW,200,8.0,10.0,89,-99.99,,,-99.99,,2013-02-11 05:53:00,